Albany, Minnesota
Current Conditions -  °F | °C
As of 9:13 AM on Thursday 30 Oct 2014 (Local Time) from KD39 Reporting Station
Overcast Overcast  
Wind Chill: 35°   Ceiling: 3200
Heat Index: 38°   Visibility: 10mi
Dew Point: 36°   Wind: 5mph
Humidity: 90%   Direction: 360°N
Pressure: 30.08"   Gusts: NA
Location:  45.63°N, 94.57°W
Report Text: KD39 301413Z AUTO 36004KT 10SM OVC032 04/02 A3008 RMK AO2 T00350020
Loading
Personal Weather Stations






























Interactive Weather Map
Tropical Storm Tracking
New forecast layout! Learn more

10-Day Weather Forecast

Advertisements
Track Severe Weather on mobile